createdAt,value
2023-03-27T00:00:16.330Z,4.70
2023-03-27T00:01:20.093Z,4.70
2023-03-27T00:02:23.447Z,4.70
2023-03-27T00:03:29.704Z,4.70
2023-03-27T00:04:32.957Z,4.70
2023-03-27T00:05:36.599Z,4.70
2023-03-27T00:06:42.354Z,4.70
2023-03-27T00:07:48.625Z,4.80
2023-03-27T00:08:52.139Z,4.80
2023-03-27T00:09:57.428Z,4.80
2023-03-27T00:11:01.786Z,4.80
2023-03-27T00:12:05.686Z,4.80
2023-03-27T00:13:10.039Z,4.80
2023-03-27T00:14:13.566Z,4.90
2023-03-27T00:15:17.552Z,4.90
2023-03-27T00:16:22.223Z,4.90
2023-03-27T00:17:24.788Z,4.90
2023-03-27T00:18:30.422Z,4.90
2023-03-27T00:19:33.945Z,4.90
2023-03-27T00:20:39.160Z,4.90
2023-03-27T00:21:44.987Z,5.00
2023-03-27T00:22:55.430Z,5.00
2023-03-27T00:23:57.935Z,5.00
2023-03-27T00:25:01.446Z,5.00
2023-03-27T00:26:05.789Z,5.00
2023-03-27T00:27:09.520Z,5.00
2023-03-27T00:28:13.888Z,5.00
2023-03-27T00:29:17.829Z,5.10
2023-03-27T00:30:20.908Z,5.00
2023-03-27T00:31:24.514Z,5.00
2023-03-27T00:32:27.091Z,5.10
2023-03-27T00:33:30.522Z,5.10
2023-03-27T00:34:32.997Z,5.00
2023-03-27T00:35:36.584Z,5.10
2023-03-27T00:36:39.384Z,5.00
2023-03-27T00:37:43.270Z,5.00
2023-03-27T00:38:45.927Z,5.00
2023-03-27T00:39:50.444Z,5.00
2023-03-27T00:40:54.828Z,5.00
2023-03-27T00:42:00.161Z,5.00
2023-03-27T00:43:02.709Z,5.00
2023-03-27T00:44:25.545Z,4.90
2023-03-27T00:45:31.538Z,4.90
2023-03-27T00:46:42.951Z,4.90
2023-03-27T00:47:47.454Z,4.90
2023-03-27T00:48:53.691Z,4.80
2023-03-27T00:49:56.968Z,4.80
2023-03-27T00:51:01.782Z,4.80
2023-03-27T00:52:07.059Z,4.80
2023-03-27T00:53:15.989Z,4.70
2023-03-27T00:54:26.447Z,4.70
2023-03-27T00:55:34.663Z,4.70
2023-03-27T00:56:38.688Z,4.60
2023-03-27T00:57:46.663Z,4.60
2023-03-27T00:58:53.621Z,4.60
2023-03-27T01:00:01.587Z,4.50
2023-03-27T01:01:04.345Z,4.50
2023-03-27T01:02:09.834Z,4.50
2023-03-27T01:03:14.296Z,4.40
2023-03-27T01:04:21.378Z,4.40
2023-03-27T01:05:23.897Z,4.40
2023-03-27T01:06:27.703Z,4.40
2023-03-27T01:07:30.787Z,4.30
2023-03-27T01:08:37.696Z,4.30
2023-03-27T01:09:40.513Z,4.30
2023-03-27T01:10:56.554Z,4.30
2023-03-27T01:12:14.766Z,4.30
2023-03-27T01:13:42.287Z,4.20
2023-03-27T01:14:58.398Z,4.20
2023-03-27T01:16:10.620Z,4.20
2023-03-27T01:17:36.037Z,4.20
2023-03-27T01:18:54.736Z,4.10
2023-03-27T01:20:42.565Z,4.10
2023-03-27T01:22:26.002Z,4.10
2023-03-27T01:24:26.723Z,4.10
2023-03-27T01:26:19.310Z,4.10
2023-03-27T01:28:33.044Z,4.10
2023-03-27T01:30:02.840Z,4.10
2023-03-27T01:31:35.820Z,4.10
2023-03-27T01:33:30.052Z,4.20
2023-03-27T01:35:21.992Z,4.20
2023-03-27T01:37:05.695Z,4.20
2023-03-27T01:38:53.751Z,4.20
2023-03-27T01:40:05.199Z,4.30
2023-03-27T01:41:15.792Z,4.30
2023-03-27T01:42:25.812Z,4.30
2023-03-27T01:43:36.922Z,4.30
2023-03-27T01:44:48.475Z,4.30
2023-03-27T01:45:57.353Z,4.30
2023-03-27T01:47:07.717Z,4.30
2023-03-27T01:48:18.381Z,4.30
2023-03-27T01:49:25.217Z,4.30
2023-03-27T01:50:34.805Z,4.30
2023-03-27T01:51:43.950Z,4.30
2023-03-27T01:52:54.644Z,4.40
2023-03-27T01:54:02.297Z,4.30
2023-03-27T01:55:13.174Z,4.30
2023-03-27T01:56:26.630Z,4.30
2023-03-27T01:57:49.268Z,4.30
2023-03-27T01:58:59.986Z,4.30
2023-03-27T02:00:17.313Z,4.30
2023-03-27T02:01:32.303Z,4.30
2023-03-27T02:02:36.371Z,4.30
2023-03-27T02:03:45.111Z,4.30
2023-03-27T02:04:54.581Z,4.20
2023-03-27T02:06:06.091Z,4.20
2023-03-27T02:07:17.830Z,4.20
2023-03-27T02:08:29.756Z,4.20
2023-03-27T02:09:47.543Z,4.20
2023-03-27T02:10:58.394Z,4.10
2023-03-27T02:12:08.838Z,4.10
2023-03-27T02:13:21.358Z,4.10
2023-03-27T02:14:30.696Z,4.00
2023-03-27T02:15:40.248Z,4.00
2023-03-27T02:16:51.282Z,4.00
2023-03-27T02:18:05.510Z,4.00
2023-03-27T02:19:15.307Z,4.00
2023-03-27T02:20:17.949Z,3.90
2023-03-27T02:21:23.594Z,3.90
2023-03-27T02:22:37.691Z,3.90
2023-03-27T02:23:43.588Z,3.80
2023-03-27T02:24:49.053Z,3.80
2023-03-27T02:25:55.251Z,3.80
2023-03-27T02:27:05.116Z,3.70
2023-03-27T02:28:35.182Z,3.70
2023-03-27T02:29:55.034Z,3.70
2023-03-27T02:31:32.801Z,3.70
2023-03-27T02:32:48.240Z,3.60
2023-03-27T02:34:26.125Z,3.60
2023-03-27T02:35:41.013Z,3.60
2023-03-27T02:36:55.080Z,3.50
2023-03-27T02:38:14.504Z,3.50
2023-03-27T02:39:38.704Z,3.50
2023-03-27T02:40:54.786Z,3.50
2023-03-27T02:42:44.112Z,3.40
2023-03-27T02:43:56.917Z,3.40
2023-03-27T02:45:26.217Z,3.40
2023-03-27T02:46:34.200Z,3.30
2023-03-27T02:47:43.006Z,3.30
2023-03-27T02:48:49.699Z,3.30
2023-03-27T02:49:58.714Z,3.30
2023-03-27T02:51:06.638Z,3.30
2023-03-27T02:52:15.701Z,3.30
2023-03-27T02:53:21.351Z,3.30
2023-03-27T02:54:32.541Z,3.20
2023-03-27T02:55:42.891Z,3.20
2023-03-27T02:56:54.477Z,3.20
2023-03-27T02:58:09.228Z,3.20
2023-03-27T02:59:39.508Z,3.20
2023-03-27T03:00:49.106Z,3.10
2023-03-27T03:02:23.046Z,3.10
2023-03-27T03:03:39.057Z,3.10
2023-03-27T03:05:24.697Z,3.10
2023-03-27T03:06:30.320Z,3.10
2023-03-27T03:07:36.142Z,3.10
2023-03-27T03:08:39.441Z,3.10
2023-03-27T03:09:45.395Z,3.00
2023-03-27T03:10:48.496Z,3.00
2023-03-27T03:11:55.244Z,3.00
2023-03-27T03:12:57.738Z,3.00
2023-03-27T03:14:02.732Z,3.00
2023-03-27T03:15:07.840Z,3.00
2023-03-27T03:16:12.279Z,3.00
2023-03-27T03:17:16.694Z,2.90
2023-03-27T03:18:21.873Z,2.90
2023-03-27T03:19:24.917Z,2.90
2023-03-27T03:20:29.627Z,2.90
2023-03-27T03:21:32.049Z,2.90
2023-03-27T03:22:36.355Z,2.80
2023-03-27T03:23:39.263Z,2.80
2023-03-27T03:24:43.805Z,2.80
2023-03-27T03:25:52.841Z,2.80
2023-03-27T03:26:56.558Z,2.80
2023-03-27T03:27:59.152Z,2.80
2023-03-27T03:29:04.611Z,2.70
2023-03-27T03:30:12.481Z,2.70
2023-03-27T03:31:48.707Z,2.70
2023-03-27T03:32:51.605Z,2.70
2023-03-27T03:33:56.287Z,2.70
2023-03-27T03:34:58.896Z,2.70
2023-03-27T03:36:05.770Z,2.70
2023-03-27T03:37:11.461Z,2.70
2023-03-27T03:38:24.847Z,2.70
2023-03-27T03:39:27.626Z,2.70
2023-03-27T03:40:31.671Z,2.70
2023-03-27T03:41:34.314Z,2.70
2023-03-27T03:42:39.077Z,2.60
2023-03-27T03:43:41.436Z,2.70
2023-03-27T03:44:47.070Z,2.60
2023-03-27T03:45:55.572Z,2.60
2023-03-27T03:46:58.180Z,2.60
2023-03-27T03:48:02.130Z,2.60
2023-03-27T03:49:05.000Z,2.70
2023-03-27T03:50:09.723Z,2.70
2023-03-27T03:51:12.195Z,2.70
2023-03-27T03:52:15.659Z,2.70
2023-03-27T03:53:20.720Z,2.70
2023-03-27T03:54:24.111Z,2.70
2023-03-27T03:55:26.621Z,2.70
2023-03-27T03:56:31.671Z,2.70
2023-03-27T03:57:34.228Z,2.70
2023-03-27T03:58:42.899Z,2.70
2023-03-27T03:59:47.969Z,2.80
2023-03-27T04:01:05.699Z,2.80
2023-03-27T04:02:28.412Z,2.80
2023-03-27T04:03:37.868Z,2.80
2023-03-27T04:04:40.629Z,2.80
2023-03-27T04:05:48.239Z,2.80
2023-03-27T04:06:51.102Z,2.80
2023-03-27T04:07:54.631Z,2.80
2023-03-27T04:08:57.899Z,2.80
2023-03-27T04:10:14.744Z,2.80
2023-03-27T04:11:17.143Z,2.80
2023-03-27T04:12:59.627Z,2.80
2023-03-27T04:14:07.914Z,2.80
2023-03-27T04:15:18.626Z,2.80
2023-03-27T04:16:42.215Z,2.80
2023-03-27T04:17:53.709Z,2.80
2023-03-27T04:18:57.229Z,2.80
2023-03-27T04:20:04.532Z,2.80
2023-03-27T04:21:14.733Z,2.80
2023-03-27T04:22:17.627Z,2.80
2023-03-27T04:23:21.144Z,2.80
2023-03-27T04:24:24.140Z,2.80
2023-03-27T04:25:28.639Z,2.80
2023-03-27T04:26:31.444Z,2.80
2023-03-27T04:28:04.104Z,2.80
2023-03-27T04:29:11.874Z,2.80
2023-03-27T04:30:52.198Z,2.80
2023-03-27T04:32:26.314Z,2.80
2023-03-27T04:33:52.481Z,2.80
2023-03-27T04:34:55.064Z,2.80
2023-03-27T04:36:19.562Z,2.80
2023-03-27T04:37:46.611Z,2.80
2023-03-27T04:39:04.501Z,2.80
2023-03-27T04:40:11.473Z,2.90
2023-03-27T04:41:14.084Z,2.90
2023-03-27T04:42:17.670Z,2.90
2023-03-27T04:43:20.350Z,2.90
2023-03-27T04:44:23.763Z,2.90
2023-03-27T04:45:27.220Z,3.00
2023-03-27T04:46:32.617Z,3.00
2023-03-27T04:47:42.737Z,3.00
2023-03-27T04:48:46.491Z,3.10
2023-03-27T04:49:59.009Z,3.10
2023-03-27T04:51:04.703Z,3.10
2023-03-27T04:52:14.155Z,3.10
2023-03-27T04:53:18.158Z,3.10
2023-03-27T04:54:24.050Z,3.10
2023-03-27T04:55:26.983Z,3.10
2023-03-27T04:56:30.812Z,3.10
2023-03-27T04:57:34.272Z,3.10
2023-03-27T04:58:41.031Z,3.10
2023-03-27T04:59:47.900Z,3.10
2023-03-27T05:01:20.370Z,3.10
2023-03-27T05:02:43.037Z,3.10
2023-03-27T05:03:52.072Z,3.20
2023-03-27T05:05:10.195Z,3.20
2023-03-27T05:06:14.060Z,3.20
2023-03-27T05:07:17.025Z,3.20
2023-03-27T05:08:20.991Z,3.20
2023-03-27T05:09:24.287Z,3.20
2023-03-27T05:10:28.265Z,3.20
2023-03-27T05:11:31.001Z,3.20
2023-03-27T05:12:34.674Z,3.20
2023-03-27T05:13:38.282Z,3.20
2023-03-27T05:14:42.040Z,3.20
2023-03-27T05:16:01.851Z,3.20
2023-03-27T05:17:10.077Z,3.20
2023-03-27T05:18:17.970Z,3.10
2023-03-27T05:19:26.764Z,3.10
2023-03-27T05:20:36.180Z,3.10
2023-03-27T05:21:43.992Z,3.10
2023-03-27T05:22:48.832Z,3.10
2023-03-27T05:24:01.090Z,3.10
2023-03-27T05:25:05.207Z,3.10
2023-03-27T05:26:07.888Z,3.10
2023-03-27T05:27:31.719Z,3.00
2023-03-27T05:28:35.760Z,3.00
2023-03-27T05:29:46.684Z,3.00
2023-03-27T05:30:51.477Z,3.00
2023-03-27T05:31:59.035Z,3.00
2023-03-27T05:33:14.388Z,3.00
2023-03-27T05:34:19.261Z,3.00
2023-03-27T05:35:25.059Z,3.00
2023-03-27T05:36:30.078Z,2.90
2023-03-27T05:37:36.352Z,2.90
2023-03-27T05:38:59.034Z,2.90
2023-03-27T05:40:21.000Z,2.90
2023-03-27T05:41:24.215Z,2.90
2023-03-27T05:42:27.896Z,2.90
2023-03-27T05:43:32.223Z,2.90
2023-03-27T05:44:35.251Z,2.90
2023-03-27T05:45:38.713Z,2.90
2023-03-27T05:46:42.621Z,2.90
2023-03-27T05:47:57.053Z,2.90
2023-03-27T05:49:00.419Z,2.90
2023-03-27T05:50:06.107Z,2.90
2023-03-27T05:51:09.436Z,2.90
2023-03-27T05:52:14.132Z,2.90
2023-03-27T05:53:16.750Z,2.90
2023-03-27T05:54:36.031Z,3.00
2023-03-27T05:55:46.367Z,3.00
2023-03-27T05:56:49.022Z,3.00
2023-03-27T05:57:52.847Z,3.10
2023-03-27T05:58:55.700Z,3.10
2023-03-27T06:00:00.889Z,3.20
2023-03-27T06:01:04.629Z,3.30
2023-03-27T06:02:11.059Z,3.40
2023-03-27T06:03:24.200Z,3.50
2023-03-27T06:04:34.275Z,3.60
2023-03-27T06:05:53.129Z,3.60
2023-03-27T06:06:56.567Z,3.70
2023-03-27T06:08:00.826Z,3.80
2023-03-27T06:09:04.487Z,3.90
2023-03-27T06:10:13.655Z,3.90
2023-03-27T06:11:20.498Z,4.00
2023-03-27T06:12:24.884Z,4.10
2023-03-27T06:13:36.134Z,4.20
2023-03-27T06:14:43.262Z,4.30
2023-03-27T06:16:12.737Z,4.50
2023-03-27T06:17:18.018Z,4.80
2023-03-27T06:18:28.384Z,5.00
2023-03-27T06:19:31.029Z,5.20
2023-03-27T06:20:35.446Z,5.40
2023-03-27T06:21:41.089Z,5.60
2023-03-27T06:22:46.984Z,5.70
2023-03-27T06:23:51.668Z,5.90
2023-03-27T06:24:54.314Z,6.10
2023-03-27T06:25:58.609Z,6.20
2023-03-27T06:27:02.901Z,6.30
2023-03-27T06:28:09.946Z,6.50
2023-03-27T06:29:29.647Z,6.60
2023-03-27T06:30:32.182Z,6.80
2023-03-27T06:32:02.567Z,6.80
2023-03-27T06:33:15.458Z,6.80
2023-03-27T06:34:20.198Z,6.80
2023-03-27T06:35:32.467Z,6.80
2023-03-27T06:37:00.023Z,6.70
2023-03-27T06:38:05.055Z,6.60
2023-03-27T06:39:08.745Z,6.50
2023-03-27T06:40:20.426Z,6.40
2023-03-27T06:41:24.009Z,6.40
2023-03-27T06:42:51.106Z,6.20
2023-03-27T06:44:06.989Z,6.10
2023-03-27T06:45:23.265Z,6.00
2023-03-27T06:46:45.907Z,5.90
2023-03-27T06:48:16.978Z,5.80
2023-03-27T06:49:25.306Z,5.80
2023-03-27T06:50:30.311Z,5.80
2023-03-27T06:51:38.656Z,6.00
2023-03-27T06:52:42.744Z,6.30
2023-03-27T06:54:06.900Z,6.70
2023-03-27T06:55:14.692Z,7.30
2023-03-27T06:56:25.974Z,7.90
2023-03-27T06:57:50.840Z,8.60
2023-03-27T06:58:56.578Z,9.40
2023-03-27T07:00:10.717Z,9.90
2023-03-27T07:01:37.504Z,10.40
2023-03-27T07:03:04.917Z,11.00
2023-03-27T07:04:25.299Z,11.50
2023-03-27T07:05:40.810Z,12.00
2023-03-27T07:06:48.955Z,12.50
2023-03-27T07:07:54.826Z,12.90
2023-03-27T07:09:03.397Z,13.40
2023-03-27T07:10:10.124Z,13.90
2023-03-27T07:11:15.486Z,14.30
2023-03-27T07:12:40.079Z,14.80
2023-03-27T07:13:43.568Z,15.30
2023-03-27T07:14:56.866Z,15.80
2023-03-27T07:16:04.466Z,16.20
2023-03-27T07:17:10.129Z,16.70
2023-03-27T07:18:27.920Z,17.00
2023-03-27T07:19:31.236Z,17.30
2023-03-27T07:20:43.172Z,17.60
2023-03-27T07:21:50.901Z,17.90
2023-03-27T07:22:56.560Z,18.20
2023-03-27T07:24:18.757Z,18.40
2023-03-27T07:25:22.201Z,18.70
2023-03-27T07:26:27.035Z,18.90
2023-03-27T07:27:38.822Z,19.20
2023-03-27T07:28:44.699Z,19.40
2023-03-27T07:29:48.472Z,19.70
2023-03-27T07:30:56.226Z,19.90
2023-03-27T07:32:04.286Z,20.00
2023-03-27T07:33:25.324Z,20.10
2023-03-27T07:34:28.170Z,20.30
2023-03-27T07:35:54.742Z,20.60
2023-03-27T07:37:19.041Z,20.90
2023-03-27T07:38:44.320Z,21.30
2023-03-27T07:39:55.646Z,21.70
2023-03-27T07:41:06.252Z,22.00
2023-03-27T07:43:43.190Z,22.90
2023-03-27T07:44:47.323Z,23.20
2023-03-27T07:45:49.935Z,23.50
2023-03-27T07:46:53.539Z,23.80
2023-03-27T07:47:57.368Z,24.00
2023-03-27T07:49:01.046Z,24.30
2023-03-27T07:50:05.396Z,24.50
2023-03-27T07:51:13.717Z,24.50
2023-03-27T07:52:17.788Z,24.30
2023-03-27T07:53:35.887Z,23.90
2023-03-27T07:54:49.415Z,23.20
2023-03-27T07:55:55.149Z,22.50
2023-03-27T07:56:59.032Z,21.70
2023-03-27T07:58:29.658Z,20.90
2023-03-27T07:59:32.661Z,19.70
2023-03-27T08:00:43.339Z,18.90
2023-03-27T08:01:50.973Z,18.20
2023-03-27T08:03:07.970Z,17.50
2023-03-27T08:04:11.113Z,16.70
2023-03-27T08:05:17.697Z,16.10
2023-03-27T08:06:28.885Z,15.60
2023-03-27T08:07:32.484Z,15.20
2023-03-27T08:08:37.870Z,15.00
2023-03-27T08:09:42.103Z,15.10
2023-03-27T08:10:47.497Z,15.30
2023-03-27T08:11:53.336Z,15.70
2023-03-27T08:12:57.161Z,16.30
2023-03-27T08:14:01.498Z,16.80
2023-03-27T08:15:06.580Z,17.40
2023-03-27T08:16:11.755Z,18.00
2023-03-27T08:17:16.641Z,18.70
2023-03-27T08:18:19.326Z,19.30
2023-03-27T08:19:23.460Z,20.00
2023-03-27T08:20:30.549Z,20.60
2023-03-27T08:21:35.869Z,21.20
2023-03-27T08:22:38.673Z,21.80
2023-03-27T08:24:01.361Z,22.40
2023-03-27T08:25:10.525Z,23.00
2023-03-27T08:26:16.952Z,23.50
2023-03-27T08:27:28.125Z,23.90
2023-03-27T08:28:32.583Z,24.30
2023-03-27T08:29:36.116Z,24.70
2023-03-27T08:30:38.745Z,25.10
2023-03-27T08:31:43.223Z,25.50
2023-03-27T08:32:46.431Z,25.80
2023-03-27T08:33:51.389Z,26.10
2023-03-27T08:35:01.752Z,26.40
2023-03-27T08:36:05.338Z,26.60
2023-03-27T08:37:10.609Z,26.90
2023-03-27T08:38:40.366Z,27.10
2023-03-27T08:39:58.983Z,27.40
2023-03-27T08:41:03.983Z,27.60
2023-03-27T08:42:21.872Z,27.80
2023-03-27T08:43:28.936Z,28.00
2023-03-27T08:44:35.325Z,28.20
2023-03-27T08:47:03.001Z,28.50
2023-03-27T08:48:18.407Z,28.70
2023-03-27T08:49:27.035Z,29.00
2023-03-27T08:51:08.010Z,29.30
2023-03-27T08:52:17.350Z,29.60
2023-03-27T08:53:35.049Z,29.90
2023-03-27T08:54:41.625Z,30.10
2023-03-27T08:55:46.637Z,30.40
2023-03-27T08:57:01.551Z,30.60
2023-03-27T08:58:15.604Z,30.90
2023-03-27T08:59:21.131Z,31.10
2023-03-27T09:00:31.970Z,31.40
2023-03-27T09:02:08.760Z,31.60
2023-03-27T09:03:22.478Z,31.90
2023-03-27T09:04:42.048Z,32.10
2023-03-27T09:05:54.928Z,32.30
2023-03-27T09:07:06.347Z,32.20
2023-03-27T09:08:28.010Z,32.20
2023-03-27T09:09:46.737Z,32.20
2023-03-27T09:10:52.303Z,32.30
2023-03-27T09:12:20.389Z,32.40
2023-03-27T09:13:32.064Z,32.50
2023-03-27T09:14:42.079Z,32.30
2023-03-27T09:15:57.325Z,31.90
2023-03-27T09:17:10.443Z,31.50
2023-03-27T09:18:20.413Z,31.10
2023-03-27T09:19:33.389Z,31.00
2023-03-27T09:21:48.892Z,30.00
2023-03-27T09:23:12.443Z,29.10
2023-03-27T09:24:41.802Z,28.00
2023-03-27T09:26:11.087Z,26.30
2023-03-27T09:27:37.736Z,24.80
2023-03-27T09:29:19.871Z,23.30
2023-03-27T09:30:30.512Z,21.80
2023-03-27T09:31:50.226Z,20.70
2023-03-27T09:32:58.373Z,19.60
2023-03-27T09:34:06.875Z,18.80
2023-03-27T09:35:14.166Z,18.10
2023-03-27T09:36:18.057Z,17.40
2023-03-27T09:37:22.048Z,16.80
2023-03-27T09:38:33.459Z,16.30
2023-03-27T09:39:44.212Z,15.80
2023-03-27T09:41:06.752Z,15.30
2023-03-27T09:42:17.232Z,14.80
2023-03-27T09:43:28.446Z,14.50
2023-03-27T09:44:41.557Z,14.60
2023-03-27T09:45:48.846Z,15.10
2023-03-27T09:46:59.462Z,15.70
2023-03-27T09:48:05.479Z,16.40
2023-03-27T09:49:18.816Z,17.30
2023-03-27T09:50:35.134Z,18.20
2023-03-27T09:51:47.474Z,19.20
2023-03-27T09:53:23.038Z,20.20
2023-03-27T09:54:53.598Z,21.30
2023-03-27T09:56:07.234Z,22.50
2023-03-27T09:57:14.295Z,23.30
2023-03-27T09:58:34.654Z,24.00
2023-03-27T09:59:55.802Z,24.70
2023-03-27T10:01:13.809Z,25.40
2023-03-27T10:02:20.317Z,26.10
2023-03-27T10:03:23.363Z,26.60
2023-03-27T10:04:32.333Z,27.10
2023-03-27T10:05:37.688Z,27.60
2023-03-27T10:06:47.509Z,28.00
2023-03-27T10:08:02.938Z,28.40
2023-03-27T10:09:35.045Z,28.70
2023-03-27T10:10:45.855Z,29.10
2023-03-27T10:12:21.871Z,29.30
2023-03-27T10:13:30.206Z,29.70
2023-03-27T10:14:39.843Z,29.90
2023-03-27T10:15:42.838Z,30.00
2023-03-27T10:16:53.740Z,30.30
2023-03-27T10:17:57.577Z,30.50
2023-03-27T10:19:01.576Z,30.60
2023-03-27T10:20:16.020Z,30.80
2023-03-27T10:21:28.816Z,30.80
2023-03-27T10:22:37.689Z,30.60
2023-03-27T10:23:44.068Z,30.20
2023-03-27T10:24:59.274Z,29.80
2023-03-27T10:26:29.266Z,29.30
2023-03-27T10:27:35.092Z,28.60
2023-03-27T10:29:07.162Z,28.30
2023-03-27T10:30:40.533Z,28.10
2023-03-27T10:32:05.301Z,28.30
2023-03-27T10:33:38.056Z,28.50
2023-03-27T10:35:05.413Z,28.80
2023-03-27T10:36:13.718Z,28.90
2023-03-27T10:37:28.628Z,28.60
2023-03-27T10:38:59.483Z,28.20
2023-03-27T10:40:27.950Z,27.40
2023-03-27T10:41:37.711Z,27.10
2023-03-27T10:42:41.970Z,26.90
2023-03-27T10:43:47.893Z,26.60
2023-03-27T10:44:54.607Z,26.20
2023-03-27T10:46:09.209Z,25.70
2023-03-27T10:47:20.844Z,25.30
2023-03-27T10:48:42.648Z,24.90
2023-03-27T10:50:04.297Z,24.80
2023-03-27T10:51:45.498Z,24.90
2023-03-27T10:53:07.143Z,24.80
2023-03-27T10:54:36.981Z,24.90
2023-03-27T10:55:54.477Z,25.10
2023-03-27T10:57:02.717Z,25.10
2023-03-27T10:58:24.011Z,25.20
2023-03-27T10:59:41.950Z,25.40
2023-03-27T11:01:13.176Z,25.60
2023-03-27T11:02:29.306Z,25.70
2023-03-27T11:03:39.754Z,25.90
2023-03-27T11:04:51.462Z,26.00
2023-03-27T11:05:56.235Z,26.30
2023-03-27T11:07:28.396Z,26.50
2023-03-27T11:08:36.068Z,26.50
2023-03-27T11:09:49.530Z,26.30
2023-03-27T11:10:52.814Z,26.00
2023-03-27T11:12:08.093Z,25.80
2023-03-27T11:13:23.324Z,25.80
2023-03-27T11:14:37.157Z,25.80
2023-03-27T11:15:53.814Z,25.90
2023-03-27T11:17:25.326Z,26.00
2023-03-27T11:19:31.077Z,26.20
2023-03-27T11:21:19.150Z,26.40
2023-03-27T11:22:36.619Z,26.40
2023-03-27T11:23:49.417Z,26.30
2023-03-27T11:25:23.162Z,26.10
2023-03-27T11:26:35.389Z,25.90
2023-03-27T11:27:48.178Z,25.60
2023-03-27T11:28:58.827Z,25.30
2023-03-27T11:30:28.854Z,25.10
2023-03-27T11:31:39.444Z,25.00
2023-03-27T11:33:01.908Z,25.00
2023-03-27T11:34:10.356Z,24.90
2023-03-27T11:35:23.011Z,24.90
2023-03-27T11:36:49.487Z,24.80
2023-03-27T11:38:03.476Z,24.50
2023-03-27T11:39:27.139Z,24.20
2023-03-27T11:40:35.956Z,23.80
2023-03-27T11:41:39.318Z,23.40
2023-03-27T11:42:44.308Z,23.00
2023-03-27T11:43:48.921Z,22.60
2023-03-27T11:45:14.471Z,22.20
2023-03-27T11:46:38.633Z,21.80
2023-03-27T11:48:01.690Z,21.60
2023-03-27T11:49:30.341Z,21.50
2023-03-27T11:50:45.150Z,21.60
2023-03-27T11:52:05.560Z,21.60
2023-03-27T11:53:39.192Z,21.70
2023-03-27T11:55:08.598Z,21.90
2023-03-27T11:56:31.880Z,22.00
2023-03-27T11:58:10.722Z,22.20
2023-03-27T11:59:57.087Z,22.30
2023-03-27T12:01:17.809Z,22.50
2023-03-27T12:02:58.453Z,22.60
2023-03-27T12:04:30.024Z,22.80
2023-03-27T12:06:03.248Z,23.00
2023-03-27T12:07:35.241Z,23.10
2023-03-27T12:09:01.895Z,23.10
2023-03-27T12:10:32.108Z,22.90
2023-03-27T12:11:56.155Z,22.50
2023-03-27T12:13:41.972Z,22.00
2023-03-27T12:15:13.203Z,21.60
2023-03-27T12:16:49.290Z,21.20
2023-03-27T12:18:11.124Z,21.00
2023-03-27T12:19:38.207Z,20.60
2023-03-27T12:21:24.028Z,20.30
2023-03-27T12:22:45.104Z,19.60
2023-03-27T12:24:26.385Z,19.00
2023-03-27T12:26:43.772Z,18.40
2023-03-27T12:28:22.753Z,17.70
2023-03-27T12:30:02.618Z,17.10
2023-03-27T12:31:31.339Z,17.10
2023-03-27T12:33:25.070Z,17.10
2023-03-27T12:34:50.331Z,17.20
2023-03-27T12:35:58.400Z,17.30
2023-03-27T12:37:03.625Z,17.40
2023-03-27T12:38:12.475Z,17.60
2023-03-27T12:39:22.215Z,17.80
2023-03-27T12:40:31.383Z,18.00
2023-03-27T12:41:44.335Z,18.20
2023-03-27T12:43:26.585Z,18.40
2023-03-27T12:45:13.349Z,18.70
2023-03-27T12:46:32.254Z,19.00
2023-03-27T12:47:35.167Z,19.10
2023-03-27T12:49:00.356Z,19.30
2023-03-27T12:50:20.911Z,19.40
2023-03-27T12:51:47.515Z,19.60
2023-03-27T12:53:05.865Z,19.70
2023-03-27T12:54:26.285Z,19.80
2023-03-27T12:55:41.569Z,19.90
2023-03-27T12:57:06.617Z,20.10
2023-03-27T12:58:13.064Z,20.20
2023-03-27T12:59:39.503Z,20.30
2023-03-27T13:00:54.062Z,20.30
2023-03-27T13:02:59.720Z,20.20
2023-03-27T13:04:26.591Z,19.90
2023-03-27T13:05:46.757Z,19.40
2023-03-27T13:07:05.704Z,19.00
2023-03-27T13:08:41.731Z,18.50
2023-03-27T13:10:08.276Z,18.00
2023-03-27T13:11:27.926Z,17.50
2023-03-27T13:12:54.406Z,17.00
2023-03-27T13:15:02.720Z,16.70
2023-03-27T13:16:30.492Z,16.20
2023-03-27T13:17:53.590Z,16.00
2023-03-27T13:19:31.877Z,15.90
2023-03-27T13:20:54.197Z,15.90
2023-03-27T13:22:23.587Z,15.80
2023-03-27T13:23:40.081Z,15.80
2023-03-27T13:25:26.222Z,15.70
2023-03-27T13:26:44.804Z,15.60
2023-03-27T13:28:15.450Z,15.50
2023-03-27T13:29:34.791Z,15.50
2023-03-27T13:30:49.771Z,15.60
2023-03-27T13:32:38.019Z,15.60
2023-03-27T13:34:08.450Z,15.80
2023-03-27T13:35:34.154Z,16.00
2023-03-27T13:36:44.288Z,16.20
2023-03-27T13:37:58.269Z,16.40
2023-03-27T13:39:24.046Z,16.60
2023-03-27T13:40:44.529Z,16.80
2023-03-27T13:42:03.086Z,17.00
2023-03-27T13:43:22.932Z,17.10
2023-03-27T13:44:54.650Z,17.20
2023-03-27T13:46:01.808Z,17.30
2023-03-27T13:47:52.201Z,17.40
2023-03-27T13:49:21.071Z,17.50
2023-03-27T13:51:06.912Z,17.60
2023-03-27T13:52:47.658Z,17.70
2023-03-27T13:54:48.583Z,17.80
2023-03-27T13:56:12.341Z,17.80
2023-03-27T13:58:08.963Z,17.90
2023-03-27T13:59:47.254Z,18.00
2023-03-27T14:01:31.695Z,18.10
2023-03-27T14:03:22.197Z,18.10
2023-03-27T14:04:57.337Z,18.20
2023-03-27T14:06:46.256Z,18.20
2023-03-27T14:08:13.109Z,18.30
2023-03-27T14:09:59.016Z,18.40
2023-03-27T14:11:42.600Z,18.40
2023-03-27T14:13:19.354Z,18.40
2023-03-27T14:14:53.156Z,18.40
2023-03-27T14:16:28.024Z,18.40
2023-03-27T14:18:03.928Z,18.40
2023-03-27T14:19:46.749Z,18.40
2023-03-27T14:20:58.524Z,18.40
2023-03-27T14:22:05.568Z,18.50
2023-03-27T14:23:28.466Z,18.50
2023-03-27T14:24:46.856Z,18.50
2023-03-27T14:26:08.005Z,18.40
2023-03-27T14:27:21.044Z,18.40
2023-03-27T14:28:32.839Z,18.30
2023-03-27T14:29:37.188Z,18.30
2023-03-27T14:30:48.419Z,18.20
2023-03-27T14:32:18.992Z,18.20
2023-03-27T14:33:28.583Z,18.10
2023-03-27T14:34:47.371Z,18.10
2023-03-27T14:36:26.058Z,18.00
2023-03-27T14:37:32.217Z,17.90
2023-03-27T14:38:43.183Z,17.80
2023-03-27T14:39:53.910Z,17.70
2023-03-27T14:40:59.404Z,17.60
2023-03-27T14:42:17.977Z,17.50
2023-03-27T14:43:38.431Z,17.40
2023-03-27T14:44:42.129Z,17.40
2023-03-27T14:45:53.565Z,17.20
2023-03-27T14:47:03.621Z,17.20
2023-03-27T14:48:15.349Z,17.10
2023-03-27T14:49:29.568Z,17.00
2023-03-27T14:50:39.691Z,16.90
2023-03-27T14:51:47.842Z,16.80
2023-03-27T14:53:12.257Z,16.70
2023-03-27T14:54:44.651Z,16.50
2023-03-27T14:55:57.438Z,16.30
2023-03-27T14:57:22.236Z,16.20
2023-03-27T14:58:29.691Z,16.00
2023-03-27T14:59:35.038Z,15.90
2023-03-27T15:00:42.862Z,15.80
2023-03-27T15:01:50.257Z,15.70
2023-03-27T15:02:57.248Z,15.60
2023-03-27T15:04:02.282Z,15.50
2023-03-27T15:05:12.051Z,15.40
2023-03-27T15:06:25.880Z,15.30
2023-03-27T15:07:35.874Z,15.20
2023-03-27T15:08:49.997Z,15.00
2023-03-27T15:10:28.210Z,14.90
2023-03-27T15:11:49.682Z,14.80
2023-03-27T15:12:56.763Z,14.60
2023-03-27T15:14:01.377Z,14.50
2023-03-27T15:15:27.256Z,14.30
2023-03-27T15:16:35.802Z,14.20
2023-03-27T15:17:45.313Z,14.00
2023-03-27T15:18:58.820Z,13.80
2023-03-27T15:20:10.402Z,13.60
2023-03-27T15:21:19.961Z,13.40
2023-03-27T15:22:27.780Z,13.10
2023-03-27T15:23:36.746Z,13.00
2023-03-27T15:24:45.143Z,12.80
2023-03-27T15:25:56.996Z,12.70
2023-03-27T15:27:01.200Z,12.50
2023-03-27T15:28:10.877Z,12.40
2023-03-27T15:29:22.808Z,12.30
2023-03-27T15:30:32.115Z,12.30
2023-03-27T15:31:37.663Z,12.20
2023-03-27T15:32:50.145Z,12.10
2023-03-27T15:34:03.323Z,12.00
2023-03-27T15:35:06.819Z,12.00
2023-03-27T15:36:26.325Z,12.00
2023-03-27T15:37:30.882Z,11.90
2023-03-27T15:38:37.202Z,11.90
2023-03-27T15:40:01.105Z,11.80
2023-03-27T15:41:44.783Z,11.80
2023-03-27T15:43:03.546Z,11.80
2023-03-27T15:44:18.520Z,11.80
2023-03-27T15:45:36.445Z,11.70
2023-03-27T15:46:55.365Z,11.70
2023-03-27T15:48:00.843Z,11.70
2023-03-27T15:49:30.922Z,11.70
2023-03-27T15:50:34.194Z,11.70
2023-03-27T15:51:37.740Z,11.70
2023-03-27T15:52:48.775Z,11.70
2023-03-27T15:53:55.900Z,11.70
2023-03-27T15:54:59.519Z,11.70
2023-03-27T15:56:06.957Z,11.80
2023-03-27T15:57:17.073Z,11.80
2023-03-27T15:58:25.212Z,11.90
2023-03-27T15:59:29.714Z,11.90
2023-03-27T16:00:32.774Z,12.00
2023-03-27T16:01:39.442Z,12.00
2023-03-27T16:02:43.602Z,12.10
2023-03-27T16:03:48.279Z,12.10
2023-03-27T16:04:55.050Z,12.10
2023-03-27T16:06:00.309Z,12.10
2023-03-27T16:07:11.801Z,12.10
2023-03-27T16:08:28.631Z,12.10
2023-03-27T16:09:37.265Z,12.10
2023-03-27T16:10:48.127Z,12.10
2023-03-27T16:11:54.136Z,12.10
2023-03-27T16:13:02.838Z,12.00
2023-03-27T16:14:19.571Z,12.00